New Lisbon, WI

5:07 AM CST on January 26, 2015 (GMT -0600)
KWINEWLI2 | Change Station
CLOSE
Current Station
Personal Weather Station
Location: New Lisbon, WI
Elevation: 891 ft
Nearby Weather Stations

Elev 891 ft 43.87 °N, 90.17 °W | Updated 26 minutes ago

Overcast
Overcast
18.1 °F
Feels Like 12 °F
N
4.0
Wind Variable Wind from South
Gusts 5.0 mph

Today
High -- | Low -- °F
--% Chance of Precip.
Yesterday
High -- | Low -- °F
Precip. -- in
7:23 AM 5:02 PM
Waxing Crescent, 42% visible
Pressure 29.92 in
Visibility 10.0 miles
Clouds Mostly Cloudy 2100 ft
Overcast 11000 ft
Windchill 12 °F
Dew Point 12 °F
Humidity 77%
Rainfall 0.00 in
Snow Depth Not available.
UV 0.0 out of 12
Pollen .10 out of 12
Air Quality Not available.
Flu Activity Not available.
SPECI KVOK 261103Z AUTO 17007KT 10SM BKN021 OVC110 M08/M10 A2992 RMK AO2 CIG 021V110 BKN V SCT

More Conditions Fewer Conditions

Pressure 29.92 in
Visibility 10.0 miles
Clouds Mostly Cloudy 2100 ft
Overcast 11000 ft
Windchill 12 °F
Dew Point 12 °F
Humidity 77%
Rainfall 0.00 in
Snow Depth Not available.
UV 0.0 out of 12
Pollen .10 out of 12
Air Quality Not available.
Flu Activity Not available.
SPECI KVOK 261103Z AUTO 17007KT 10SM BKN021 OVC110 M08/M10 A2992 RMK AO2 CIG 021V110 BKN V SCT

More Conditions Fewer Conditions

10-Day Weather Forecast

Almanac

Astronomy

Jan. 26, 2015 Rise Set
Actual Time
Civil Twilight
Nautical Twilight
Astronomical Twilight
Moon
Length of Visible Light
Length of Day
Tomorrow will be .
, % of the Moon is Illuminated

Today's Extremes

State Highs State Lows

Community

WunderPhotos

Upload Photos

1,790,172 photos uploaded!

WunderBlogs® & News

Nearby

Air Quality

  Air Quality AQ Index Pollutant
Not available.

Snow Depth

Station Depth Elevation

Earthquake Activity

City Distance Mag. Time & Date
Minimum magnitude displayed is 2.5.

Coastal Water Temperatures

Place Temperature

Nearby Weather Stations